createdAt,value
2022-10-19T00:00:46.624Z,1025.67
2022-10-19T00:01:46.636Z,1025.65
2022-10-19T00:02:46.612Z,1025.66
2022-10-19T00:03:46.699Z,1025.69
2022-10-19T00:04:46.550Z,1025.66
2022-10-19T00:05:46.557Z,1025.65
2022-10-19T00:06:46.524Z,1025.65
2022-10-19T00:07:46.533Z,1025.68
2022-10-19T00:08:46.494Z,1025.66
2022-10-19T00:09:46.475Z,1025.67
2022-10-19T00:10:46.474Z,1025.65
2022-10-19T00:11:46.453Z,1025.64
2022-10-19T00:13:46.427Z,1025.67
2022-10-19T00:14:46.436Z,1025.59
2022-10-19T00:15:46.401Z,1025.57
2022-10-19T00:16:46.390Z,1025.60
2022-10-19T00:17:46.367Z,1025.61
2022-10-19T00:18:46.383Z,1025.61
2022-10-19T00:19:46.344Z,1025.54
2022-10-19T00:20:46.343Z,1025.55
2022-10-19T00:21:46.397Z,1025.60
2022-10-19T00:22:46.313Z,1025.55
2022-10-19T00:23:46.313Z,1025.53
2022-10-19T00:24:46.295Z,1025.55
2022-10-19T00:25:46.276Z,1025.56
2022-10-19T00:26:46.250Z,1025.54
2022-10-19T00:27:46.236Z,1025.52
2022-10-19T00:28:46.280Z,1025.56
2022-10-19T00:29:46.216Z,1025.55
2022-10-19T00:30:46.257Z,1025.56
2022-10-19T00:31:46.219Z,1025.54
2022-10-19T00:32:46.186Z,1025.50
2022-10-19T00:33:46.168Z,1025.50
2022-10-19T00:34:46.147Z,1025.51
2022-10-19T00:35:46.147Z,1025.49
2022-10-19T00:36:46.118Z,1025.48
2022-10-19T00:37:46.106Z,1025.48
2022-10-19T00:38:46.098Z,1025.48
2022-10-19T00:39:46.126Z,1025.54
2022-10-19T00:40:46.067Z,1025.56
2022-10-19T00:41:46.073Z,1025.52
2022-10-19T00:42:46.039Z,1025.50
2022-10-19T00:43:46.040Z,1025.53
2022-10-19T00:44:46.005Z,1025.52
2022-10-19T00:45:45.998Z,1025.55
2022-10-19T00:46:45.990Z,1025.55
2022-10-19T00:47:45.968Z,1025.56
2022-10-19T00:48:46.021Z,1025.56
2022-10-19T00:49:45.949Z,1025.55
2022-10-19T00:50:45.940Z,1025.56
2022-10-19T00:51:45.938Z,1025.53
2022-10-19T00:52:45.899Z,1025.52
2022-10-19T00:53:45.918Z,1025.55
2022-10-19T00:54:45.891Z,1025.51
2022-10-19T00:55:45.858Z,1025.54
2022-10-19T00:56:45.838Z,1025.55
2022-10-19T00:57:45.861Z,1025.50
2022-10-19T00:58:45.833Z,1025.52
2022-10-19T00:59:45.812Z,1025.48
2022-10-19T01:00:45.829Z,1025.45
2022-10-19T01:01:45.781Z,1025.50
2022-10-19T01:02:45.781Z,1025.43
2022-10-19T01:03:45.770Z,1025.43
2022-10-19T01:04:45.755Z,1025.41
2022-10-19T01:05:45.727Z,1025.43
2022-10-19T01:06:45.758Z,1025.43
2022-10-19T01:07:45.702Z,1025.46
2022-10-19T01:08:45.699Z,1025.46
2022-10-19T01:09:45.687Z,1025.43
2022-10-19T01:10:45.660Z,1025.51
2022-10-19T01:11:45.666Z,1025.52
2022-10-19T01:12:45.625Z,1025.43
2022-10-19T01:13:45.651Z,1025.43
2022-10-19T01:14:45.609Z,1025.41
2022-10-19T01:15:45.620Z,1025.40
2022-10-19T01:16:45.591Z,1025.40
2022-10-19T01:17:45.562Z,1025.38
2022-10-19T01:18:45.568Z,1025.43
2022-10-19T01:19:45.541Z,1025.37
2022-10-19T01:20:45.523Z,1025.40
2022-10-19T01:21:45.511Z,1025.41
2022-10-19T01:22:45.492Z,1025.46
2022-10-19T01:23:45.491Z,1025.40
2022-10-19T01:24:45.509Z,1025.39
2022-10-19T01:25:45.481Z,1025.42
2022-10-19T01:26:45.434Z,1025.44
2022-10-19T01:27:45.452Z,1025.44
2022-10-19T01:28:45.447Z,1025.44
2022-10-19T01:29:45.409Z,1025.44
2022-10-19T01:30:45.393Z,1025.46
2022-10-19T01:31:45.384Z,1025.46
2022-10-19T01:32:45.353Z,1025.45
2022-10-19T01:33:45.416Z,1025.44
2022-10-19T01:34:45.333Z,1025.42
2022-10-19T01:35:45.344Z,1025.45
2022-10-19T01:36:45.300Z,1025.40
2022-10-19T01:37:45.294Z,1025.41
2022-10-19T01:38:45.293Z,1025.40
2022-10-19T01:39:47.752Z,1025.37
2022-10-19T01:40:45.247Z,1025.40
2022-10-19T01:41:45.234Z,1025.43
2022-10-19T01:42:45.259Z,1025.39
2022-10-19T01:43:45.256Z,1025.33
2022-10-19T01:44:45.255Z,1025.36
2022-10-19T01:45:45.212Z,1025.36
2022-10-19T01:46:45.164Z,1025.32
2022-10-19T01:47:45.165Z,1025.29
2022-10-19T01:48:45.174Z,1025.31
2022-10-19T01:49:45.155Z,1025.28
2022-10-19T01:50:45.124Z,1025.26
2022-10-19T01:51:45.230Z,1025.30
2022-10-19T01:52:45.084Z,1025.24
2022-10-19T01:53:45.094Z,1025.21
2022-10-19T01:54:45.065Z,1025.19
2022-10-19T01:55:45.068Z,1025.14
2022-10-19T01:56:45.034Z,1025.15
2022-10-19T01:57:45.035Z,1025.12
2022-10-19T01:58:45.025Z,1025.09
2022-10-19T01:59:45.006Z,1025.04
2022-10-19T02:00:45.083Z,1025.12
2022-10-19T02:01:44.965Z,1025.11
2022-10-19T02:02:44.976Z,1025.15
2022-10-19T02:03:44.935Z,1025.06
2022-10-19T02:04:44.956Z,1025.18
2022-10-19T02:05:44.915Z,1025.12
2022-10-19T02:06:44.893Z,1025.15
2022-10-19T02:07:44.905Z,1025.15
2022-10-19T02:08:44.865Z,1025.16
2022-10-19T02:09:44.867Z,1025.16
2022-10-19T02:10:44.837Z,1025.16
2022-10-19T02:11:47.992Z,1025.20
2022-10-19T02:12:44.825Z,1025.24
2022-10-19T02:13:44.807Z,1025.19
2022-10-19T02:14:44.809Z,1025.16
2022-10-19T02:15:44.775Z,1025.17
2022-10-19T02:16:44.791Z,1025.19
2022-10-19T02:17:44.787Z,1025.19
2022-10-19T02:18:44.736Z,1025.15
2022-10-19T02:19:44.728Z,1025.12
2022-10-19T02:20:44.697Z,1025.11
2022-10-19T02:21:44.696Z,1025.10
2022-10-19T02:22:44.688Z,1025.12
2022-10-19T02:23:44.676Z,1025.07
2022-10-19T02:24:44.657Z,1025.08
2022-10-19T02:25:44.639Z,1025.06
2022-10-19T02:26:44.626Z,1025.06
2022-10-19T02:27:44.630Z,1025.04
2022-10-19T02:28:44.598Z,1025.08
2022-10-19T02:29:44.619Z,1025.07
2022-10-19T02:30:44.568Z,1025.08
2022-10-19T02:31:44.575Z,1025.07
2022-10-19T02:32:44.557Z,1025.05
2022-10-19T02:33:44.548Z,1025.05
2022-10-19T02:34:44.523Z,1025.04
2022-10-19T02:35:44.507Z,1025.04
2022-10-19T02:36:44.499Z,1025.00
2022-10-19T02:37:44.498Z,1024.94
2022-10-19T02:38:44.472Z,1025.01
2022-10-19T02:39:44.466Z,1024.94
2022-10-19T02:40:44.429Z,1024.95
2022-10-19T02:41:44.419Z,1024.92
2022-10-19T02:42:44.408Z,1024.91
2022-10-19T02:43:44.401Z,1024.90
2022-10-19T02:44:44.381Z,1024.88
2022-10-19T02:45:44.409Z,1024.85
2022-10-19T02:46:44.351Z,1024.85
2022-10-19T02:47:44.521Z,1024.80
2022-10-19T02:48:44.318Z,1024.79
2022-10-19T02:49:44.320Z,1024.76
2022-10-19T02:50:44.297Z,1024.80
2022-10-19T02:51:44.308Z,1024.81
2022-10-19T02:52:44.270Z,1024.87
2022-10-19T02:53:44.280Z,1024.85
2022-10-19T02:54:44.241Z,1024.87
2022-10-19T02:55:44.234Z,1024.85
2022-10-19T02:56:44.229Z,1024.82
2022-10-19T02:57:44.244Z,1024.82
2022-10-19T02:58:44.193Z,1024.82
2022-10-19T02:59:44.181Z,1024.83
2022-10-19T03:00:44.192Z,1024.80
2022-10-19T03:01:44.162Z,1024.75
2022-10-19T03:02:44.163Z,1024.73
2022-10-19T03:03:44.121Z,1024.73
2022-10-19T03:04:44.158Z,1024.75
2022-10-19T03:05:44.091Z,1024.65
2022-10-19T03:06:44.082Z,1024.69
2022-10-19T03:07:44.091Z,1024.68
2022-10-19T03:08:44.053Z,1024.70
2022-10-19T03:09:44.042Z,1024.70
2022-10-19T03:10:44.031Z,1024.70
2022-10-19T03:11:44.029Z,1024.74
2022-10-19T03:12:44.012Z,1024.73
2022-10-19T03:13:44.009Z,1024.69
2022-10-19T03:14:43.989Z,1024.70
2022-10-19T03:15:43.969Z,1024.67
2022-10-19T03:16:43.974Z,1024.73
2022-10-19T03:17:43.954Z,1024.72
2022-10-19T03:18:43.922Z,1024.71
2022-10-19T03:19:43.915Z,1024.74
2022-10-19T03:20:43.899Z,1024.71
2022-10-19T03:21:43.882Z,1024.70
2022-10-19T03:22:43.904Z,1024.76
2022-10-19T03:23:43.861Z,1024.73
2022-10-19T03:24:43.833Z,1024.71
2022-10-19T03:25:43.832Z,1024.77
2022-10-19T03:26:43.822Z,1024.76
2022-10-19T03:27:43.832Z,1024.72
2022-10-19T03:28:43.817Z,1024.75
2022-10-19T03:29:43.773Z,1024.77
2022-10-19T03:30:43.777Z,1024.73
2022-10-19T03:31:43.763Z,1024.72
2022-10-19T03:32:43.762Z,1024.77
2022-10-19T03:33:43.723Z,1024.76
2022-10-19T03:34:43.704Z,1024.82
2022-10-19T03:35:43.692Z,1024.82
2022-10-19T03:36:43.680Z,1024.81
2022-10-19T03:37:43.701Z,1024.81
2022-10-19T03:38:43.661Z,1024.79
2022-10-19T03:39:43.645Z,1024.86
2022-10-19T03:40:43.614Z,1024.86
2022-10-19T03:41:43.622Z,1024.83
2022-10-19T03:42:43.604Z,1024.81
2022-10-19T03:43:43.594Z,1024.83
2022-10-19T03:44:43.584Z,1024.84
2022-10-19T03:45:43.554Z,1024.81
2022-10-19T03:46:43.562Z,1024.87
2022-10-19T03:47:43.544Z,1024.86
2022-10-19T03:48:43.514Z,1024.86
2022-10-19T03:49:43.533Z,1024.91
2022-10-19T03:50:43.485Z,1024.92
2022-10-19T03:51:43.475Z,1024.94
2022-10-19T03:52:43.475Z,1024.92
2022-10-19T03:53:43.457Z,1024.94
2022-10-19T03:54:43.434Z,1024.97
2022-10-19T03:55:43.426Z,1024.98
2022-10-19T03:56:43.407Z,1025.00
2022-10-19T03:57:43.413Z,1025.01
2022-10-19T03:58:43.375Z,1025.01
2022-10-19T03:59:43.375Z,1025.00
2022-10-19T04:00:43.404Z,1025.02
2022-10-19T04:01:43.376Z,1024.98
2022-10-19T04:02:43.335Z,1024.97
2022-10-19T04:03:43.317Z,1024.98
2022-10-19T04:04:43.298Z,1025.03
2022-10-19T04:05:43.293Z,1025.04
2022-10-19T04:06:43.287Z,1025.03
2022-10-19T04:07:43.286Z,1024.97
2022-10-19T04:08:43.246Z,1024.98
2022-10-19T04:09:43.235Z,1024.99
2022-10-19T04:10:43.216Z,1024.98
2022-10-19T04:11:43.212Z,1024.95
2022-10-19T04:12:43.226Z,1025.01
2022-10-19T04:13:43.176Z,1024.95
2022-10-19T04:14:56.808Z,1024.93
2022-10-19T04:15:44.157Z,1024.93
2022-10-19T04:16:43.153Z,1024.96
2022-10-19T04:17:45.618Z,1024.96
2022-10-19T04:18:43.128Z,1024.93
2022-10-19T04:19:43.122Z,1024.89
2022-10-19T04:20:43.098Z,1024.91
2022-10-19T04:21:43.080Z,1024.96
2022-10-19T04:22:43.057Z,1024.96
2022-10-19T04:23:43.086Z,1024.98
2022-10-19T04:24:43.027Z,1024.99
2022-10-19T04:25:43.030Z,1024.96
2022-10-19T04:26:43.010Z,1024.94
2022-10-19T04:27:42.997Z,1024.99
2022-10-19T04:28:43.028Z,1025.01
2022-10-19T04:29:42.967Z,1024.96
2022-10-19T04:30:42.949Z,1024.93
2022-10-19T04:31:42.961Z,1025.03
2022-10-19T04:32:42.948Z,1025.05
2022-10-19T04:33:42.970Z,1025.00
2022-10-19T04:34:42.897Z,1024.98
2022-10-19T04:35:42.901Z,1025.03
2022-10-19T04:36:42.876Z,1025.00
2022-10-19T04:37:42.892Z,1025.03
2022-10-19T04:38:42.849Z,1025.00
2022-10-19T04:39:42.838Z,1025.00
2022-10-19T04:40:42.835Z,1024.98
2022-10-19T04:41:42.801Z,1025.01
2022-10-19T04:42:42.837Z,1024.98
2022-10-19T04:43:42.768Z,1025.01
2022-10-19T04:44:42.788Z,1025.00
2022-10-19T04:45:42.739Z,1024.98
2022-10-19T04:46:42.731Z,1024.94
2022-10-19T04:47:42.759Z,1024.95
2022-10-19T04:48:42.719Z,1024.96
2022-10-19T04:49:42.699Z,1024.94
2022-10-19T04:50:42.688Z,1024.94
2022-10-19T04:51:42.675Z,1024.90
2022-10-19T04:52:42.672Z,1024.88
2022-10-19T04:53:42.660Z,1024.87
2022-10-19T04:54:42.629Z,1024.87
2022-10-19T04:55:42.609Z,1024.86
2022-10-19T04:56:42.622Z,1024.84
2022-10-19T04:57:42.601Z,1024.88
2022-10-19T04:58:42.600Z,1024.85
2022-10-19T04:59:42.551Z,1024.83
2022-10-19T05:00:42.621Z,1024.84
2022-10-19T05:01:46.426Z,1024.84
2022-10-19T05:02:42.555Z,1024.83
2022-10-19T05:03:42.522Z,1024.82
2022-10-19T05:05:53.005Z,1024.79
2022-10-19T05:06:52.287Z,1024.77
2022-10-19T05:07:52.287Z,1024.75
2022-10-19T05:08:52.264Z,1024.80
2022-10-19T05:09:52.246Z,1024.70
2022-10-19T05:10:52.244Z,1024.74
2022-10-19T05:11:52.224Z,1024.76
2022-10-19T05:12:52.225Z,1024.75
2022-10-19T05:13:52.194Z,1024.77
2022-10-19T05:14:52.185Z,1024.76
2022-10-19T05:15:52.167Z,1024.79
2022-10-19T05:16:52.175Z,1024.74
2022-10-19T05:17:52.147Z,1024.72
2022-10-19T05:18:52.127Z,1024.70
2022-10-19T05:19:52.112Z,1024.77
2022-10-19T05:20:52.108Z,1024.75
2022-10-19T05:21:52.092Z,1024.74
2022-10-19T05:22:52.094Z,1024.74
2022-10-19T05:23:52.065Z,1024.74
2022-10-19T05:24:54.579Z,1024.67
2022-10-19T05:25:53.037Z,1024.70
2022-10-19T05:26:52.026Z,1024.68
2022-10-19T05:27:52.015Z,1024.71
2022-10-19T05:28:52.068Z,1024.71
2022-10-19T05:29:51.976Z,1024.71
2022-10-19T05:30:51.966Z,1024.70
2022-10-19T05:31:51.955Z,1024.72
2022-10-19T05:32:51.959Z,1024.73
2022-10-19T05:33:51.982Z,1024.75
2022-10-19T05:34:51.927Z,1024.76
2022-10-19T05:35:51.896Z,1024.77
2022-10-19T05:36:51.886Z,1024.73
2022-10-19T05:37:51.895Z,1024.73
2022-10-19T05:38:51.857Z,1024.70
2022-10-19T05:39:51.846Z,1024.69
2022-10-19T05:40:53.703Z,1024.65
2022-10-19T05:41:51.817Z,1024.65
2022-10-19T05:42:51.817Z,1024.58
2022-10-19T05:43:51.788Z,1024.54
2022-10-19T05:44:51.781Z,1024.57
2022-10-19T05:45:51.769Z,1024.60
2022-10-19T05:46:51.755Z,1024.64
2022-10-19T05:47:51.756Z,1024.64
2022-10-19T05:48:51.729Z,1024.66
2022-10-19T05:49:51.708Z,1024.65
2022-10-19T05:50:51.709Z,1024.67
2022-10-19T05:51:51.685Z,1024.66
2022-10-19T05:52:51.688Z,1024.68
2022-10-19T05:53:51.650Z,1024.67
2022-10-19T05:54:51.648Z,1024.65
2022-10-19T05:55:51.629Z,1024.67
2022-10-19T05:56:51.627Z,1024.62
2022-10-19T05:57:51.620Z,1024.61
2022-10-19T05:58:51.591Z,1024.66
2022-10-19T05:59:51.678Z,1024.61
2022-10-19T06:00:51.568Z,1024.64
2022-10-19T06:01:51.620Z,1024.66
2022-10-19T06:02:54.642Z,1024.63
2022-10-19T06:03:52.519Z,1024.68
2022-10-19T06:04:51.509Z,1024.65
2022-10-19T06:05:51.498Z,1024.65
2022-10-19T06:06:51.480Z,1024.61
2022-10-19T06:07:51.481Z,1024.64
2022-10-19T06:08:51.491Z,1024.62
2022-10-19T06:09:51.440Z,1024.57
2022-10-19T06:10:51.429Z,1024.59
2022-10-19T06:11:51.411Z,1024.55
2022-10-19T06:12:51.400Z,1024.55
2022-10-19T06:13:51.399Z,1024.54
2022-10-19T06:14:51.401Z,1024.56
2022-10-19T06:15:51.359Z,1024.54
2022-10-19T06:16:51.357Z,1024.60
2022-10-19T06:17:51.330Z,1024.55
2022-10-19T06:18:51.340Z,1024.54
2022-10-19T06:19:51.302Z,1024.59
2022-10-19T06:20:51.312Z,1024.55
2022-10-19T06:21:51.271Z,1024.54
2022-10-19T06:22:51.272Z,1024.57
2022-10-19T06:23:51.278Z,1024.58
2022-10-19T06:24:51.241Z,1024.60
2022-10-19T06:25:51.228Z,1024.62
2022-10-19T06:26:51.211Z,1024.63
2022-10-19T06:27:51.281Z,1024.66
2022-10-19T06:28:51.203Z,1024.61
2022-10-19T06:29:51.173Z,1024.65
2022-10-19T06:30:51.213Z,1024.64
2022-10-19T06:31:51.142Z,1024.66
2022-10-19T06:32:51.225Z,1024.67
2022-10-19T06:33:51.166Z,1024.72
2022-10-19T06:34:55.741Z,1024.73
2022-10-19T06:35:52.091Z,1024.71
2022-10-19T06:36:51.082Z,1024.68
2022-10-19T06:37:51.080Z,1024.70
2022-10-19T06:38:51.052Z,1024.71
2022-10-19T06:39:51.195Z,1024.70
2022-10-19T06:40:51.022Z,1024.72
2022-10-19T06:41:51.003Z,1024.72
2022-10-19T06:42:50.994Z,1024.76
2022-10-19T06:43:51.005Z,1024.76
2022-10-19T06:44:50.973Z,1024.73
2022-10-19T06:45:50.965Z,1024.73
2022-10-19T06:46:50.950Z,1024.75
2022-10-19T06:47:50.940Z,1024.70
2022-10-19T06:48:50.927Z,1024.71
2022-10-19T06:49:50.899Z,1024.71
2022-10-19T06:50:50.892Z,1024.70
2022-10-19T06:51:50.873Z,1024.68
2022-10-19T06:52:50.922Z,1024.68
2022-10-19T06:53:52.846Z,1024.65
2022-10-19T06:54:50.843Z,1024.67
2022-10-19T06:55:50.823Z,1024.62
2022-10-19T06:56:50.814Z,1024.62
2022-10-19T06:57:50.804Z,1024.58
2022-10-19T06:58:50.783Z,1024.63
2022-10-19T06:59:52.876Z,1024.57
2022-10-19T07:00:50.791Z,1024.57
2022-10-19T07:01:50.742Z,1024.52
2022-10-19T07:02:50.743Z,1024.51
2022-10-19T07:03:50.713Z,1024.53
2022-10-19T07:04:50.704Z,1024.51
2022-10-19T07:05:50.683Z,1024.49
2022-10-19T07:06:50.674Z,1024.52
2022-10-19T07:07:50.738Z,1024.48
2022-10-19T07:08:50.644Z,1024.52
2022-10-19T07:09:50.626Z,1024.50
2022-10-19T07:10:50.624Z,1024.53
2022-10-19T07:11:50.603Z,1024.54
2022-10-19T07:12:50.612Z,1024.55
2022-10-19T07:13:50.599Z,1024.55
2022-10-19T07:14:50.565Z,1024.56
2022-10-19T07:15:50.552Z,1024.61
2022-10-19T07:16:50.546Z,1024.60
2022-10-19T07:17:50.536Z,1024.61
2022-10-19T07:18:50.517Z,1024.61
2022-10-19T07:19:50.495Z,1024.63
2022-10-19T07:20:50.498Z,1024.66
2022-10-19T07:21:50.465Z,1024.64
2022-10-19T07:22:50.458Z,1024.67
2022-10-19T07:23:50.461Z,1024.66
2022-10-19T07:24:50.428Z,1024.75
2022-10-19T07:25:50.425Z,1024.77
2022-10-19T07:26:50.405Z,1024.76
2022-10-19T07:27:50.396Z,1024.75
2022-10-19T07:28:50.386Z,1024.74
2022-10-19T07:29:50.366Z,1024.69
2022-10-19T07:30:50.345Z,1024.69
2022-10-19T07:31:50.335Z,1024.74
2022-10-19T07:32:50.328Z,1024.74
2022-10-19T07:33:50.326Z,1024.72
2022-10-19T07:34:50.298Z,1024.72
2022-10-19T07:35:50.287Z,1024.79
2022-10-19T07:36:50.266Z,1024.80
2022-10-19T07:37:50.264Z,1024.82
2022-10-19T07:38:50.258Z,1024.88
2022-10-19T07:39:50.228Z,1024.88
2022-10-19T07:40:50.217Z,1024.82
2022-10-19T07:41:50.205Z,1024.86
2022-10-19T07:42:50.186Z,1024.81
2022-10-19T07:43:50.188Z,1024.82
2022-10-19T07:44:50.160Z,1024.78
2022-10-19T07:45:50.148Z,1024.72
2022-10-19T07:46:50.134Z,1024.69
2022-10-19T07:47:50.118Z,1024.68
2022-10-19T07:48:50.118Z,1024.64
2022-10-19T07:49:50.099Z,1024.63
2022-10-19T07:50:50.078Z,1024.63
2022-10-19T07:51:50.077Z,1024.58
2022-10-19T07:52:50.055Z,1024.60
2022-10-19T07:53:50.072Z,1024.58
2022-10-19T07:54:50.035Z,1024.61
2022-10-19T07:55:50.019Z,1024.60
2022-10-19T07:56:49.998Z,1024.63
2022-10-19T07:57:49.989Z,1024.63
2022-10-19T07:58:49.987Z,1024.62
2022-10-19T07:59:49.966Z,1024.65
2022-10-19T08:00:49.948Z,1024.63
2022-10-19T08:01:50.037Z,1024.60
2022-10-19T08:03:05.090Z,1024.63
2022-10-19T08:05:09.157Z,1024.65
2022-10-19T08:05:50.891Z,1024.66
2022-10-19T08:06:49.859Z,1024.68
2022-10-19T08:07:49.872Z,1024.65
2022-10-19T08:08:49.914Z,1024.64
2022-10-19T08:09:54.115Z,1024.65
2022-10-19T08:10:49.812Z,1024.65
2022-10-19T08:11:49.799Z,1024.64
2022-10-19T08:12:49.801Z,1024.63
2022-10-19T08:13:49.790Z,1024.60
2022-10-19T08:14:49.761Z,1024.59
2022-10-19T08:15:49.741Z,1024.57
2022-10-19T08:16:49.721Z,1024.57
2022-10-19T08:17:49.730Z,1024.56
2022-10-19T08:18:49.699Z,1024.58
2022-10-19T08:19:49.692Z,1024.49
2022-10-19T08:20:49.673Z,1024.48
2022-10-19T08:21:49.673Z,1024.52
2022-10-19T08:22:49.662Z,1024.45
2022-10-19T08:23:49.640Z,1024.37
2022-10-19T08:24:49.620Z,1024.40
2022-10-19T08:25:49.603Z,1024.42
2022-10-19T08:26:49.581Z,1024.40
2022-10-19T08:27:49.600Z,1024.43
2022-10-19T08:28:49.563Z,1024.45
2022-10-19T08:29:49.550Z,1024.44
2022-10-19T08:30:49.532Z,1024.46
2022-10-19T08:31:49.525Z,1024.50
2022-10-19T08:32:49.608Z,1024.48
2022-10-19T08:33:49.500Z,1024.49
2022-10-19T08:34:49.483Z,1024.48
2022-10-19T08:35:49.464Z,1024.44
2022-10-19T08:36:49.454Z,1024.52
2022-10-19T08:37:49.821Z,1024.54
2022-10-19T08:38:49.422Z,1024.51
2022-10-19T08:39:49.421Z,1024.50
2022-10-19T08:40:49.413Z,1024.51
2022-10-19T08:42:49.374Z,1024.49
2022-10-19T08:43:49.363Z,1024.43
2022-10-19T08:44:49.344Z,1024.46
2022-10-19T08:45:49.334Z,1024.41
2022-10-19T08:46:49.319Z,1024.37
2022-10-19T08:47:49.324Z,1024.35
2022-10-19T08:48:49.294Z,1024.29
2022-10-19T08:49:49.274Z,1024.28
2022-10-19T08:50:49.263Z,1024.22
2022-10-19T08:51:49.260Z,1024.21
2022-10-19T08:52:49.244Z,1024.22
2022-10-19T08:53:49.224Z,1024.19
2022-10-19T08:54:49.213Z,1024.16
2022-10-19T08:55:49.204Z,1024.15
2022-10-19T08:56:51.823Z,1024.15
2022-10-19T08:57:49.185Z,1024.15
2022-10-19T08:58:49.145Z,1024.14
2022-10-19T08:59:49.146Z,1024.18
2022-10-19T09:00:49.128Z,1024.16
2022-10-19T09:01:49.116Z,1024.15
2022-10-19T09:02:49.116Z,1024.08
2022-10-19T09:03:56.657Z,1024.10
2022-10-19T09:04:50.067Z,1024.09
2022-10-19T09:05:49.064Z,1024.05
2022-10-19T09:06:49.047Z,1024.06
2022-10-19T09:07:49.056Z,1024.06
2022-10-19T09:08:49.103Z,1023.89
2022-10-19T09:09:49.028Z,1023.89
2022-10-19T09:10:48.986Z,1023.90
2022-10-19T09:11:48.978Z,1023.92
2022-10-19T09:12:48.979Z,1023.84
2022-10-19T09:14:04.240Z,1023.82
2022-10-19T09:14:49.939Z,1023.82
2022-10-19T09:15:48.938Z,1023.80
2022-10-19T09:16:48.909Z,1023.80
2022-10-19T09:17:48.918Z,1023.78
2022-10-19T09:18:49.008Z,1023.82
2022-10-19T09:19:48.869Z,1023.82
2022-10-19T09:20:48.859Z,1023.78
2022-10-19T09:21:48.847Z,1023.78
2022-10-19T09:22:48.849Z,1023.77
2022-10-19T09:23:48.819Z,1023.76
2022-10-19T09:24:48.798Z,1023.78
2022-10-19T09:25:48.789Z,1023.78
2022-10-19T09:26:48.769Z,1023.83
2022-10-19T09:27:48.832Z,1023.74
2022-10-19T09:28:48.750Z,1023.70
2022-10-19T09:29:48.733Z,1023.73
2022-10-19T09:30:48.721Z,1023.73
2022-10-19T09:31:48.790Z,1023.73
2022-10-19T09:32:48.701Z,1023.73
2022-10-19T09:33:48.689Z,1023.72
2022-10-19T09:34:48.661Z,1023.78
2022-10-19T09:35:48.658Z,1023.80
2022-10-19T09:36:50.799Z,1023.78
2022-10-19T09:37:48.643Z,1023.75
2022-10-19T09:38:48.614Z,1023.74
2022-10-19T09:39:53.924Z,1023.73
2022-10-19T09:40:49.582Z,1023.71
2022-10-19T09:41:48.571Z,1023.71
2022-10-19T09:42:48.571Z,1023.67
2022-10-19T09:43:48.542Z,1023.70
2022-10-19T09:44:48.531Z,1023.70
2022-10-19T09:45:48.521Z,1023.71
2022-10-19T09:46:48.583Z,1023.75
2022-10-19T09:47:48.509Z,1023.75
2022-10-19T09:48:48.473Z,1023.75
2022-10-19T09:49:48.462Z,1023.71
2022-10-19T09:50:48.443Z,1023.70
2022-10-19T09:51:48.432Z,1023.69
2022-10-19T09:52:48.432Z,1023.70
2022-10-19T09:53:48.405Z,1023.69
2022-10-19T09:54:48.394Z,1023.62
2022-10-19T09:56:48.364Z,1023.64
2022-10-19T09:57:48.372Z,1023.66
2022-10-19T09:58:48.344Z,1023.66
2022-10-19T09:59:48.324Z,1023.63
2022-10-19T10:00:48.306Z,1023.58
2022-10-19T10:01:48.522Z,1023.59
2022-10-19T10:02:48.309Z,1023.58
2022-10-19T10:03:50.109Z,1023.58
2022-10-19T10:04:48.261Z,1023.58
2022-10-19T10:05:48.246Z,1023.55
2022-10-19T10:06:48.224Z,1023.58
2022-10-19T10:07:48.233Z,1023.57
2022-10-19T10:08:48.230Z,1023.56
2022-10-19T10:09:48.201Z,1023.54
2022-10-19T10:10:48.175Z,1023.52
2022-10-19T10:11:48.217Z,1023.58
2022-10-19T10:12:48.166Z,1023.54
2022-10-19T10:13:48.140Z,1023.56
2022-10-19T10:14:48.166Z,1023.56
2022-10-19T10:15:48.196Z,1023.56
2022-10-19T10:16:48.207Z,1023.57
2022-10-19T10:17:50.507Z,1023.56
2022-10-19T10:18:48.218Z,1023.57
2022-10-19T10:19:48.066Z,1023.58
2022-10-19T10:20:48.073Z,1023.52
2022-10-19T10:21:48.024Z,1023.57
2022-10-19T10:22:48.028Z,1023.57
2022-10-19T10:23:48.009Z,1023.55
2022-10-19T10:24:47.978Z,1023.55
2022-10-19T10:25:47.977Z,1023.50
2022-10-19T10:26:47.950Z,1023.46
2022-10-19T10:27:47.959Z,1023.47
2022-10-19T10:28:47.970Z,1023.52
2022-10-19T10:29:47.948Z,1023.55
2022-10-19T10:30:47.909Z,1023.55
2022-10-19T10:31:47.907Z,1023.43
2022-10-19T10:32:48.195Z,1023.45
2022-10-19T10:33:47.904Z,1023.48
2022-10-19T10:34:53.082Z,1023.44
2022-10-19T10:35:48.837Z,1023.38
2022-10-19T10:36:47.820Z,1023.37
2022-10-19T10:37:47.821Z,1023.33
2022-10-19T10:38:47.790Z,1023.28
2022-10-19T10:39:47.784Z,1023.27
2022-10-19T10:40:47.761Z,1023.23
2022-10-19T10:41:47.761Z,1023.21
2022-10-19T10:42:47.753Z,1023.21
2022-10-19T10:43:47.808Z,1023.20
2022-10-19T10:44:47.711Z,1023.17
2022-10-19T10:45:47.702Z,1023.17
2022-10-19T10:46:47.702Z,1023.19
2022-10-19T10:47:47.681Z,1023.20
2022-10-19T10:48:49.343Z,1023.17
2022-10-19T10:49:48.686Z,1023.17
2022-10-19T10:50:47.631Z,1023.17
2022-10-19T10:51:50.655Z,1023.17
2022-10-19T10:52:48.605Z,1023.17
2022-10-19T10:53:47.614Z,1023.16
2022-10-19T10:54:47.575Z,1023.07
2022-10-19T10:55:47.614Z,1023.04
2022-10-19T10:56:47.567Z,1022.95
2022-10-19T10:57:47.548Z,1022.93
2022-10-19T10:58:47.524Z,1022.91
2022-10-19T10:59:47.515Z,1022.85
2022-10-19T11:00:47.495Z,1022.82
2022-10-19T11:01:47.527Z,1022.78
2022-10-19T11:02:47.469Z,1022.72
2022-10-19T11:03:47.465Z,1022.68
2022-10-19T11:04:49.984Z,1022.59
2022-10-19T11:05:54.455Z,1022.57
2022-10-19T11:06:47.412Z,1022.52
2022-10-19T11:07:47.418Z,1022.53
2022-10-19T11:08:47.428Z,1022.52
2022-10-19T11:09:47.375Z,1022.47
2022-10-19T11:10:47.369Z,1022.46
2022-10-19T11:11:47.348Z,1022.40
2022-10-19T11:12:47.345Z,1022.36
2022-10-19T11:13:47.317Z,1022.33
2022-10-19T11:14:47.308Z,1022.31
2022-10-19T11:15:47.296Z,1022.26
2022-10-19T11:16:47.290Z,1022.25
2022-10-19T11:17:47.278Z,1022.17
2022-10-19T11:18:47.248Z,1022.17
2022-10-19T11:19:47.238Z,1022.15
2022-10-19T11:20:47.219Z,1022.12
2022-10-19T11:21:47.211Z,1022.06
2022-10-19T11:22:47.209Z,1022.02
2022-10-19T11:23:47.188Z,1021.95
2022-10-19T11:24:48.695Z,1021.95
2022-10-19T11:25:47.160Z,1021.88
2022-10-19T11:26:47.140Z,1021.96
2022-10-19T11:27:47.142Z,1021.89
2022-10-19T11:28:47.112Z,1021.93
2022-10-19T11:29:47.102Z,1021.90
2022-10-19T11:30:49.867Z,1021.87
2022-10-19T11:31:47.083Z,1021.84
2022-10-19T11:32:47.085Z,1021.80
2022-10-19T11:33:47.060Z,1021.81
2022-10-19T11:34:47.035Z,1021.78
2022-10-19T11:35:47.024Z,1021.75
2022-10-19T11:36:47.015Z,1021.74
2022-10-19T11:37:50.129Z,1021.67
2022-10-19T11:38:47.986Z,1021.67
2022-10-19T11:39:46.980Z,1021.67
2022-10-19T11:41:06.052Z,1021.62
2022-10-19T11:41:47.948Z,1021.62
2022-10-19T11:43:46.918Z,1021.57
2022-10-19T11:44:46.915Z,1021.53
2022-10-19T11:45:46.910Z,1021.48
2022-10-19T11:46:46.887Z,1021.48
2022-10-19T11:47:46.881Z,1021.49
2022-10-19T11:48:46.861Z,1021.46
2022-10-19T11:49:46.840Z,1021.45
2022-10-19T11:50:53.950Z,1021.49
2022-10-19T11:51:47.812Z,1021.48
2022-10-19T11:52:46.829Z,1021.39
2022-10-19T11:53:46.795Z,1021.48
2022-10-19T11:54:46.783Z,1021.38
2022-10-19T11:55:46.765Z,1021.32
2022-10-19T11:57:02.196Z,1021.37
2022-10-19T11:57:47.753Z,1021.46
2022-10-19T11:58:46.739Z,1021.37
2022-10-19T11:59:46.714Z,1021.36
2022-10-19T12:00:46.709Z,1021.32
2022-10-19T12:01:46.731Z,1021.28
2022-10-19T12:02:46.677Z,1021.27
2022-10-19T12:03:46.665Z,1021.30
2022-10-19T12:04:46.646Z,1021.17
2022-10-19T12:05:46.638Z,1021.13
2022-10-19T12:06:46.639Z,1021.10
2022-10-19T12:07:46.607Z,1021.08
2022-10-19T12:08:46.859Z,1021.07
2022-10-19T12:09:46.587Z,1021.02
2022-10-19T12:10:46.578Z,1020.99
2022-10-19T12:11:46.570Z,1020.95